Time;durP1;ratioP1;P1;durP2;ratioP2;P2;SDS_P1;SDS_P2;PMS_P1;PMS_P2;Temp;Humidity;BMP_temperature;BMP_pressure;BME280_temperature;BME280_humidity;BME280_pressure;Samples;Min_cycle;Max_cycle;Signal;HPM_P1;HPM_P2
2021/06/04 00:00:22;;;;;;;4.40;3.28;;;;;;;;;;4861264;29;20057;-12
2021/06/04 00:02:47;;;;;;;3.47;2.90;;;;;;;;;;4861702;29;20025;-12
2021/06/04 00:05:13;;;;;;;6.30;3.28;;;;;;;;;;4861250;29;20021;-12
2021/06/04 00:07:39;;;;;;;3.55;2.75;;;;;;;;;;4861335;29;20064;-12
2021/06/04 00:10:10;;;;;;;3.85;2.97;;;;;;;;;;4861257;29;20045;-12
2021/06/04 00:12:36;;;;;;;6.32;2.85;;;;;;;;;;4861136;29;20142;-12
2021/06/04 00:15:01;;;;;;;3.92;2.80;;;;;;;;;;4860981;29;20104;-12
2021/06/04 00:17:26;;;;;;;4.93;3.72;;;;;;;;;;4861033;29;20046;-12
2021/06/04 00:19:52;;;;;;;3.75;3.03;;;;;;;;;;4859651;29;20061;-12
2021/06/04 00:22:22;;;;;;;5.63;3.03;;;;;;;;;;4860929;29;20073;-12
2021/06/04 00:24:48;;;;;;;3.95;2.80;;;;;;;;;;4860644;29;20053;-12
2021/06/04 00:27:14;;;;;;;5.05;3.45;;;;;;;;;;4861258;29;20044;-12
2021/06/04 00:29:39;;;;;;;5.15;3.10;;;;;;;;;;4861007;29;20041;-12
2021/06/04 00:32:05;;;;;;;5.13;3.05;;;;;;;;;;4861069;29;20093;-12
2021/06/04 00:34:30;;;;;;;4.88;2.90;;;;;;;;;;4859466;29;20078;-12
2021/06/04 00:36:56;;;;;;;3.08;2.78;;;;;;;;;;4860773;29;20533;-12
2021/06/04 00:39:22;;;;;;;5.18;3.60;;;;;;;;;;4860847;29;20121;-12
2021/06/04 00:41:50;;;;;;;5.78;3.33;;;;;;;;;;4860913;29;20037;-12
2021/06/04 00:44:15;;;;;;;6.07;3.72;;;;;;;;;;4860455;29;20392;-13
2021/06/04 00:46:41;;;;;;;5.82;3.20;;;;;;;;;;4860898;29;20037;-12
2021/06/04 00:49:07;;;;;;;5.30;3.58;;;;;;;;;;4859285;29;20036;-19
2021/06/04 00:51:35;;;;;;;5.57;3.60;;;;;;;;;;4860715;29;20045;-12
2021/06/04 00:54:06;;;;;;;6.90;3.33;;;;;;;;;;4859227;29;20477;-12
2021/06/04 00:56:32;;;;;;;8.35;3.63;;;;;;;;;;4859022;29;20026;-12
2021/06/04 00:58:58;;;;;;;3.67;2.80;;;;;;;;;;4859137;29;20046;-12
2021/06/04 01:01:26;;;;;;;8.95;3.38;;;;;;;;;;4860286;29;20022;-12
2021/06/04 01:03:56;;;;;;;3.47;2.70;;;;;;;;;;4860596;29;20085;-12
2021/06/04 01:06:40;;;;;;;4.57;3.13;;;;;;;;;;4860285;29;20040;-12
2021/06/04 01:09:24;;;;;;;4.22;3.13;;;;;;;;;;4859104;29;20034;-12
2021/06/04 01:12:09;;;;;;;4.30;3.28;;;;;;;;;;4858968;29;20026;-12
2021/06/04 01:14:38;;;;;;;3.58;3.20;;;;;;;;;;4860405;29;20130;-12
2021/06/04 01:17:09;;;;;;;4.25;3.45;;;;;;;;;;4860291;29;20064;-12
2021/06/04 01:19:41;;;;;;;5.30;3.08;;;;;;;;;;4860075;29;20094;-12
2021/06/04 01:22:09;;;;;;;5.43;3.13;;;;;;;;;;4860229;29;20085;-12
2021/06/04 01:24:54;;;;;;;3.08;2.65;;;;;;;;;;4860008;29;20132;-12
2021/06/04 01:27:24;;;;;;;6.07;3.17;;;;;;;;;;4858817;29;20124;-12
2021/06/04 01:29:55;;;;;;;5.15;3.15;;;;;;;;;;4860080;29;20481;-12
2021/06/04 01:32:24;;;;;;;3.92;3.33;;;;;;;;;;4859961;29;20037;-12
2021/06/04 01:34:57;;;;;;;7.45;2.88;;;;;;;;;;4858813;29;20033;-12
2021/06/04 01:37:22;;;;;;;;;;;;;;;;;;4860415;29;20041;-12
2021/06/04 01:39:54;;;;;;;4.18;3.25;;;;;;;;;;4858705;29;19927;-12
2021/06/04 01:42:24;;;;;;;4.13;3.05;;;;;;;;;;4858676;29;20433;-12
2021/06/04 01:44:53;;;;;;;5.63;3.38;;;;;;;;;;4858628;29;20419;-12
2021/06/04 01:47:22;;;;;;;3.38;2.97;;;;;;;;;;4858519;29;20549;-12
2021/06/04 01:49:50;;;;;;;4.90;3.17;;;;;;;;;;4860731;29;20029;-13
2021/06/04 01:52:20;;;;;;;2.92;2.65;;;;;;;;;;4863519;29;20484;-12
2021/06/04 01:54:50;;;;;;;4.25;3.05;;;;;;;;;;4863790;29;20037;-12
2021/06/04 01:57:19;;;;;;;11.73;2.80;;;;;;;;;;4863778;29;20037;-12
2021/06/04 01:59:49;;;;;;;4.75;3.17;;;;;;;;;;4862224;29;20041;-12
2021/06/04 02:02:34;;;;;;;4.95;3.13;;;;;;;;;;4863377;29;20058;-12
2021/06/04 02:05:04;;;;;;;5.10;2.67;;;;;;;;;;4862193;29;20033;-12
2021/06/04 02:07:31;;;;;;;4.75;3.35;;;;;;;;;;4861954;29;20029;-12
2021/06/04 02:09:59;;;;;;;4.20;3.30;;;;;;;;;;4862052;29;20057;-12
2021/06/04 02:12:29;;;;;;;9.18;3.90;;;;;;;;;;4861906;29;20098;-12
2021/06/04 02:15:13;;;;;;;5.32;3.08;;;;;;;;;;4861977;29;20037;-21
2021/06/04 02:17:41;;;;;;;3.60;3.03;;;;;;;;;;4861882;29;20039;-13
2021/06/04 02:20:16;;;;;;;10.73;3.30;;;;;;;;;;4861960;29;20037;-12
2021/06/04 02:23:16;;;;;;;3.15;2.70;;;;;;;;;;4861750;29;20038;-12
2021/06/04 02:25:42;;;;;;;5.63;3.17;;;;;;;;;;4861579;29;20060;-12
2021/06/04 02:28:24;;;;;;;5.00;3.25;;;;;;;;;;4861776;29;20085;-12
2021/06/04 02:30:56;;;;;;;3.92;3.25;;;;;;;;;;4861760;29;20029;-12
2021/06/04 02:33:24;;;;;;;4.28;3.45;;;;;;;;;;4861598;29;20033;-12
2021/06/04 02:35:56;;;;;;;4.25;3.13;;;;;;;;;;4861611;29;20022;-12
2021/06/04 02:38:35;;;;;;;6.65;3.17;;;;;;;;;;4862990;29;20150;-12
2021/06/04 02:41:05;;;;;;;3.58;3.08;;;;;;;;;;4863060;29;20089;-12
2021/06/04 02:43:33;;;;;;;2.80;2.50;;;;;;;;;;4861351;29;20116;-12
2021/06/04 02:46:19;;;;;;;4.70;2.75;;;;;;;;;;4861472;29;20033;-12
2021/06/04 02:48:47;;;;;;;3.55;3.25;;;;;;;;;;4862629;29;20408;-12
2021/06/04 02:51:36;;;;;;;4.32;3.38;;;;;;;;;;4861319;29;20029;-13
2021/06/04 02:54:29;;;;;;;6.85;3.42;;;;;;;;;;4857639;29;20124;-12
2021/06/04 02:56:56;;;;;;;5.95;3.22;;;;;;;;;;4860523;29;20166;-12
2021/06/04 02:59:25;;;;;;;4.32;3.92;;;;;;;;;;4861028;29;20033;-12
2021/06/04 03:01:54;;;;;;;4.85;3.20;;;;;;;;;;4861648;29;20040;-12
2021/06/04 03:04:21;;;;;;;4.72;3.33;;;;;;;;;;4861029;29;20036;-12
2021/06/04 03:06:52;;;;;;;3.70;3.35;;;;;;;;;;4862396;29;20089;-12
2021/06/04 03:09:21;;;;;;;5.47;3.38;;;;;;;;;;4862275;29;20034;-13
2021/06/04 03:11:49;;;;;;;3.58;3.10;;;;;;;;;;4860921;29;20035;-12
2021/06/04 03:14:15;;;;;;;5.28;3.55;;;;;;;;;;4860914;29;20037;-12
2021/06/04 03:16:42;;;;;;;3.42;3.00;;;;;;;;;;4862074;29;20030;-12
2021/06/04 03:19:10;;;;;;;5.18;3.63;;;;;;;;;;4860828;29;20041;-12
2021/06/04 03:21:43;;;;;;;6.97;3.47;;;;;;;;;;4860694;29;20132;-12
2021/06/04 03:24:14;;;;;;;6.38;3.33;;;;;;;;;;4860636;29;20049;-12
2021/06/04 03:26:40;;;;;;;5.13;3.88;;;;;;;;;;4860662;29;20127;-12
2021/06/04 03:29:11;;;;;;;9.85;3.75;;;;;;;;;;4861970;29;20029;-12
2021/06/04 03:31:38;;;;;;;5.10;3.63;;;;;;;;;;4861832;29;20046;-12
2021/06/04 03:34:05;;;;;;;5.45;3.25;;;;;;;;;;4860466;29;20496;-12
2021/06/04 03:36:33;;;;;;;4.43;3.22;;;;;;;;;;4860573;29;20164;-12
2021/06/04 03:38:59;;;;;;;3.83;3.20;;;;;;;;;;4861783;29;20044;-12
2021/06/04 03:41:27;;;;;;;8.90;3.10;;;;;;;;;;4860368;29;20452;-12
2021/06/04 03:43:55;;;;;;;5.05;3.40;;;;;;;;;;4860390;29;20057;-12
2021/06/04 03:46:21;;;;;;;4.28;2.97;;;;;;;;;;4860297;29;20033;-12
2021/06/04 03:48:49;;;;;;;4.18;3.38;;;;;;;;;;4860299;29;20484;-13
2021/06/04 03:51:25;;;;;;;7.03;3.50;;;;;;;;;;4861597;29;20030;-12
2021/06/04 03:53:51;;;;;;;4.45;3.58;;;;;;;;;;4860531;29;20040;-12
2021/06/04 03:56:17;;;;;;;4.05;3.63;;;;;;;;;;4844895;29;20022;-12
2021/06/04 03:58:43;;;;;;;3.97;3.55;;;;;;;;;;4861314;29;20446;-12
2021/06/04 04:01:14;;;;;;;6.43;3.40;;;;;;;;;;4861446;29;20021;-12
2021/06/04 04:03:40;;;;;;;7.72;3.90;;;;;;;;;;4861418;29;20112;-12
2021/06/04 04:06:06;;;;;;;5.70;3.92;;;;;;;;;;4861666;29;20113;-13
2021/06/04 04:08:31;;;;;;;3.97;3.20;;;;;;;;;;4861164;29;20082;-12
2021/06/04 04:10:58;;;;;;;4.55;3.40;;;;;;;;;;4861184;29;20031;-12
2021/06/04 04:13:24;;;;;;;4.63;3.38;;;;;;;;;;4860774;29;20495;-12
2021/06/04 04:15:49;;;;;;;4.18;3.35;;;;;;;;;;4859804;29;20485;-12
2021/06/04 04:18:15;;;;;;;5.45;3.60;;;;;;;;;;4861056;29;20034;-12
2021/06/04 04:20:42;;;;;;;5.35;3.90;;;;;;;;;;4861054;29;20469;-12
2021/06/04 04:23:09;;;;;;;4.43;3.40;;;;;;;;;;4860911;29;20469;-12
2021/06/04 04:25:37;;;;;;;7.03;3.53;;;;;;;;;;4860791;29;20500;-12
2021/06/04 04:28:05;;;;;;;6.97;3.65;;;;;;;;;;4860900;29;20033;-12
2021/06/04 04:30:30;;;;;;;6.75;4.28;;;;;;;;;;4861049;29;20048;-12
2021/06/04 04:32:56;;;;;;;5.47;3.97;;;;;;;;;;4859582;29;20388;-12
2021/06/04 04:35:24;;;;;;;4.97;3.25;;;;;;;;;;4860964;29;20025;-12
2021/06/04 04:37:50;;;;;;;4.10;3.45;;;;;;;;;;4860758;29;20033;-12
2021/06/04 04:40:16;;;;;;;4.00;3.40;;;;;;;;;;4859458;29;20040;-12
2021/06/04 04:42:42;;;;;;;7.15;3.72;;;;;;;;;;4860868;29;20056;-12
2021/06/04 04:45:09;;;;;;;7.03;3.55;;;;;;;;;;4860843;29;20489;-12
2021/06/04 04:47:34;;;;;;;3.58;3.28;;;;;;;;;;4860820;29;20039;-12
2021/06/04 04:49:59;;;;;;;3.95;3.47;;;;;;;;;;4860907;29;20026;-12
2021/06/04 04:52:25;;;;;;;6.65;4.00;;;;;;;;;;4860453;29;20057;-12
2021/06/04 04:54:51;;;;;;;8.10;3.83;;;;;;;;;;4860533;29;20017;-12
2021/06/04 04:57:17;;;;;;;4.35;3.78;;;;;;;;;;4860752;29;20037;-12
2021/06/04 04:59:43;;;;;;;4.03;3.50;;;;;;;;;;4860266;29;20492;-12
2021/06/04 05:02:09;;;;;;;4.38;3.75;;;;;;;;;;4860724;29;20060;-12
2021/06/04 05:04:34;;;;;;;6.22;3.88;;;;;;;;;;4860195;29;20508;-12
2021/06/04 05:07:00;;;;;;;7.78;3.65;;;;;;;;;;4859172;29;20033;-12
2021/06/04 05:09:25;;;;;;;4.78;3.30;;;;;;;;;;4860266;29;20025;-12
2021/06/04 05:11:51;;;;;;;4.53;3.60;;;;;;;;;;4860307;29;20033;-12
2021/06/04 05:14:17;;;;;;;8.50;4.32;;;;;;;;;;4860400;29;20025;-12
2021/06/04 05:16:42;;;;;;;5.60;4.40;;;;;;;;;;4860439;29;20026;-12
2021/06/04 05:19:08;;;;;;;4.90;4.35;;;;;;;;;;4858869;29;20473;-13
2021/06/04 05:21:34;;;;;;;5.25;3.92;;;;;;;;;;4860088;29;20098;-12
2021/06/04 05:24:00;;;;;;;8.38;4.13;;;;;;;;;;4859510;29;20033;-12
2021/06/04 05:26:25;;;;;;;4.10;3.40;;;;;;;;;;4860398;29;20496;-12
2021/06/04 05:28:51;;;;;;;3.85;3.42;;;;;;;;;;4860125;29;20130;-16
2021/06/04 05:31:18;;;;;;;9.57;3.97;;;;;;;;;;4860131;29;20068;-13
2021/06/04 05:33:44;;;;;;;5.88;4.60;;;;;;;;;;4860231;29;20111;-12
2021/06/04 05:36:12;;;;;;;4.68;4.07;;;;;;;;;;4860082;29;20037;-12
2021/06/04 05:38:37;;;;;;;5.40;3.95;;;;;;;;;;4860219;29;20040;-12
2021/06/04 05:41:03;;;;;;;5.35;4.18;;;;;;;;;;4860063;29;20459;-12
2021/06/04 05:43:30;;;;;;;6.20;3.80;;;;;;;;;;4860257;29;20030;-12
2021/06/04 05:45:56;;;;;;;5.60;3.33;;;;;;;;;;4860277;29;20029;-12
2021/06/04 05:48:22;;;;;;;3.80;3.38;;;;;;;;;;4859791;29;20358;-12
2021/06/04 05:50:54;;;;;;;4.40;3.20;;;;;;;;;;4860230;29;20040;-12
2021/06/04 05:53:22;;;;;;;6.32;3.63;;;;;;;;;;4858719;29;20499;-12
2021/06/04 05:55:48;;;;;;;4.78;3.90;;;;;;;;;;4860194;29;20381;-12
2021/06/04 05:58:15;;;;;;;4.88;4.20;;;;;;;;;;4858601;29;20040;-12
2021/06/04 06:00:44;;;;;;;5.65;3.67;;;;;;;;;;4858940;29;20404;-12
2021/06/04 06:03:12;;;;;;;7.18;3.92;;;;;;;;;;4859834;29;20040;-12
2021/06/04 06:05:38;;;;;;;5.22;4.07;;;;;;;;;;4860032;29;20033;-12
2021/06/04 06:08:03;;;;;;;4.68;4.05;;;;;;;;;;4860140;29;20108;-12
2021/06/04 06:10:28;;;;;;;4.05;3.65;;;;;;;;;;4859895;29;20512;-12
2021/06/04 06:12:54;;;;;;;6.75;3.70;;;;;;;;;;4858497;29;20033;-12
2021/06/04 06:15:22;;;;;;;3.88;3.47;;;;;;;;;;4859795;29;20536;-12
2021/06/04 06:17:48;;;;;;;6.57;4.25;;;;;;;;;;4859695;29;20044;-12
2021/06/04 06:20:14;;;;;;;5.63;4.07;;;;;;;;;;4859956;29;20030;-12
2021/06/04 06:22:40;;;;;;;6.05;3.15;;;;;;;;;;4858314;29;20038;-12
2021/06/04 06:25:07;;;;;;;4.63;3.63;;;;;;;;;;4859288;29;20064;-12
2021/06/04 06:27:33;;;;;;;5.60;3.53;;;;;;;;;;4859613;29;20030;-12
2021/06/04 06:29:58;;;;;;;5.25;3.42;;;;;;;;;;4859659;29;20028;-12
2021/06/04 06:32:24;;;;;;;6.75;3.63;;;;;;;;;;4859570;29;20376;-13
2021/06/04 06:34:49;;;;;;;4.80;3.47;;;;;;;;;;4860173;29;20361;-12
2021/06/04 06:37:15;;;;;;;6.80;3.75;;;;;;;;;;4862989;29;20392;-12
2021/06/04 06:39:40;;;;;;;5.07;3.63;;;;;;;;;;4861428;29;20033;-12
2021/06/04 06:42:06;;;;;;;4.22;3.10;;;;;;;;;;4863094;29;20235;-12
2021/06/04 06:44:32;;;;;;;3.53;3.08;;;;;;;;;;4862925;29;20073;-12
2021/06/04 06:46:58;;;;;;;4.47;3.40;;;;;;;;;;4862724;29;20030;-13
2021/06/04 06:49:23;;;;;;;3.75;3.03;;;;;;;;;;4862624;29;20420;-12
2021/06/04 06:51:49;;;;;;;4.03;3.63;;;;;;;;;;4862966;29;20070;-12
2021/06/04 06:54:16;;;;;;;3.92;3.40;;;;;;;;;;4862539;29;20034;-12
2021/06/04 06:56:43;;;;;;;5.47;3.83;;;;;;;;;;4862812;29;20033;-17
2021/06/04 06:59:09;;;;;;;3.50;3.17;;;;;;;;;;4862390;29;20041;-13
2021/06/04 07:01:34;;;;;;;5.97;3.67;;;;;;;;;;4862398;29;20026;-12
2021/06/04 07:04:00;;;;;;;3.90;3.22;;;;;;;;;;4862705;29;20060;-12
2021/06/04 07:06:31;;;;;;;6.40;3.42;;;;;;;;;;4862338;29;20634;-12
2021/06/04 07:08:57;;;;;;;3.95;3.22;;;;;;;;;;4862376;29;20037;-13
2021/06/04 07:11:23;;;;;;;4.93;3.60;;;;;;;;;;4862231;29;20528;-12
2021/06/04 07:13:49;;;;;;;5.22;4.07;;;;;;;;;;4862119;29;20128;-12
2021/06/04 07:16:15;;;;;;;7.43;3.67;;;;;;;;;;4862552;29;20388;-12
2021/06/04 07:18:41;;;;;;;4.50;3.83;;;;;;;;;;4862028;29;20085;-12
2021/06/04 07:21:07;;;;;;;7.68;3.63;;;;;;;;;;4862373;29;20134;-12
2021/06/04 07:23:32;;;;;;;4.13;3.17;;;;;;;;;;4862180;29;20108;-12
2021/06/04 07:25:58;;;;;;;4.18;3.58;;;;;;;;;;4861929;29;20077;-12
2021/06/04 07:28:27;;;;;;;3.47;3.00;;;;;;;;;;4862206;29;20425;-13
2021/06/04 07:30:53;;;;;;;4.78;3.80;;;;;;;;;;4861958;29;20044;-12
2021/06/04 07:33:22;;;;;;;5.72;3.88;;;;;;;;;;4861976;29;20028;-12
2021/06/04 07:35:48;;;;;;;5.07;2.97;;;;;;;;;;4861846;29;20021;-12
2021/06/04 07:38:14;;;;;;;4.97;3.33;;;;;;;;;;4861822;29;20069;-12
2021/06/04 07:40:39;;;;;;;3.55;2.90;;;;;;;;;;4860535;29;20069;-12
2021/06/04 07:43:07;;;;;;;3.55;3.25;;;;;;;;;;4861900;29;20026;-12
2021/06/04 07:45:34;;;;;;;6.35;3.50;;;;;;;;;;4861634;29;20018;-12
2021/06/04 07:48:00;;;;;;;8.73;3.13;;;;;;;;;;4861146;29;20507;-12
2021/06/04 07:50:26;;;;;;;3.95;3.05;;;;;;;;;;4861711;29;20022;-13
2021/06/04 07:52:51;;;;;;;4.07;3.67;;;;;;;;;;4861611;29;20037;-12
2021/06/04 07:55:17;;;;;;;3.92;3.28;;;;;;;;;;4861484;29;20025;-12
2021/06/04 07:57:42;;;;;;;4.63;3.47;;;;;;;;;;4861395;29;20033;-12
2021/06/04 08:00:11;;;;;;;4.65;3.58;;;;;;;;;;4861643;29;20684;-12
2021/06/04 08:02:36;;;;;;;5.15;3.60;;;;;;;;;;4861576;29;20105;-13
2021/06/04 08:05:03;;;;;;;4.35;3.72;;;;;;;;;;4861521;29;20476;-12
2021/06/04 08:07:29;;;;;;;9.40;3.55;;;;;;;;;;4861293;29;20166;-13
2021/06/04 08:09:55;;;;;;;6.05;4.05;;;;;;;;;;4861325;29;20105;-12
2021/06/04 08:12:29;;;;;;;5.32;3.22;;;;;;;;;;4861160;29;20038;-12
2021/06/04 08:14:55;;;;;;;5.05;2.72;;;;;;;;;;4861184;29;20492;-19
2021/06/04 08:17:20;;;;;;;5.18;3.85;;;;;;;;;;4859911;29;20162;-12
2021/06/04 08:19:46;;;;;;;5.35;3.92;;;;;;;;;;4860977;29;20072;-12
2021/06/04 08:22:11;;;;;;;5.30;3.65;;;;;;;;;;4861123;29;20105;-12
2021/06/04 08:24:37;;;;;;;4.47;3.88;;;;;;;;;;4860685;29;20060;-12
2021/06/04 08:27:03;;;;;;;5.45;3.10;;;;;;;;;;4861020;29;20033;-12
2021/06/04 08:29:31;;;;;;;3.13;2.80;;;;;;;;;;4861115;29;20033;-12
2021/06/04 08:31:56;;;;;;;4.50;3.40;;;;;;;;;;4860862;29;20021;-12
2021/06/04 08:34:22;;;;;;;6.07;3.13;;;;;;;;;;4859596;29;20025;-12
2021/06/04 08:36:48;;;;;;;4.80;3.22;;;;;;;;;;4860999;29;20026;-12
2021/06/04 08:39:18;;;;;;;7.07;4.03;;;;;;;;;;4860888;29;20045;-12
2021/06/04 08:42:02;;;;;;;5.72;3.22;;;;;;;;;;4859432;29;20057;-12
2021/06/04 08:44:28;;;;;;;6.10;3.20;;;;;;;;;;4860826;29;20065;-12
2021/06/04 08:46:57;;;;;;;5.60;3.53;;;;;;;;;;4860984;29;20503;-13
2021/06/04 08:49:25;;;;;;;4.53;3.42;;;;;;;;;;4860818;29;20048;-12
2021/06/04 08:51:51;;;;;;;3.63;3.22;;;;;;;;;;4860677;29;20026;-12
2021/06/04 08:54:30;;;;;;;3.08;2.72;;;;;;;;;;4860497;29;20044;-12
2021/06/04 08:57:05;;;;;;;4.95;3.45;;;;;;;;;;4860633;29;20029;-13
2021/06/04 08:59:32;;;;;;;4.28;3.22;;;;;;;;;;4859714;29;20037;-12
2021/06/04 09:01:57;;;;;;;5.57;3.13;;;;;;;;;;4860548;29;20563;-12
2021/06/04 09:04:28;;;;;;;4.75;3.45;;;;;;;;;;4860428;29;20121;-12
2021/06/04 09:06:54;;;;;;;5.15;3.90;;;;;;;;;;4860416;29;20041;-12
2021/06/04 09:09:25;;;;;;;4.55;3.00;;;;;;;;;;4860602;29;20033;-13
2021/06/04 09:11:56;;;;;;;7.07;3.40;;;;;;;;;;4860595;29;20048;-12
2021/06/04 09:14:21;;;;;;;4.28;3.30;;;;;;;;;;4860490;29;20136;-12
2021/06/04 09:17:06;;;;;;;4.55;3.70;;;;;;;;;;4860193;29;20064;-12
2021/06/04 09:19:34;;;;;;;3.83;3.35;;;;;;;;;;4858923;29;20123;-13
2021/06/04 09:22:00;;;;;;;3.63;2.80;;;;;;;;;;4860270;29;20026;-12
2021/06/04 09:24:29;;;;;;;3.00;2.50;;;;;;;;;;4860115;29;20097;-12
2021/06/04 09:26:55;;;;;;;3.60;2.97;;;;;;;;;;4860485;29;20086;-13
2021/06/04 09:29:25;;;;;;;2.85;2.53;;;;;;;;;;4860121;29;20472;-12
2021/06/04 09:31:58;;;;;;;3.75;3.28;;;;;;;;;;4860415;29;20105;-12
2021/06/04 09:34:26;;;;;;;4.13;3.30;;;;;;;;;;4860360;29;20038;-12
2021/06/04 09:37:04;;;;;;;6.75;3.60;;;;;;;;;;4860045;29;20021;-13
2021/06/04 09:39:39;;;;;;;5.60;4.43;;;;;;;;;;4860233;29;20049;-12
2021/06/04 09:42:16;;;;;;;5.00;3.65;;;;;;;;;;4860304;29;20038;-12
2021/06/04 09:44:51;;;;;;;6.93;4.47;;;;;;;;;;4860081;29;20429;-12
2021/06/04 09:47:35;;;;;;;5.88;4.82;;;;;;;;;;4860045;29;20042;-12
2021/06/04 09:50:30;;;;;;;5.90;3.65;;;;;;;;;;4859906;29;20033;-12
2021/06/04 09:53:01;;;;;;;4.35;3.70;;;;;;;;;;4851526;29;20411;-12
2021/06/04 09:55:29;;;;;;;5.80;4.10;;;;;;;;;;4858672;29;20029;-12
2021/06/04 09:58:03;;;;;;;8.02;3.60;;;;;;;;;;4859856;29;20524;-12
2021/06/04 10:00:35;;;;;;;3.97;3.55;;;;;;;;;;4859963;29;20091;-12
2021/06/04 10:03:20;;;;;;;6.07;4.43;;;;;;;;;;4859826;29;20057;-12
2021/06/04 10:05:46;;;;;;;8.52;5.80;;;;;;;;;;4859738;29;20029;-12
2021/06/04 10:08:14;;;;;;;15.43;7.88;;;;;;;;;;4858686;29;20037;-12
2021/06/04 10:10:40;;;;;;;5.45;4.65;;;;;;;;;;4861444;29;20037;-12
2021/06/04 10:13:32;;;;;;;4.18;2.55;;;;;;;;;;4863489;29;20376;-12
2021/06/04 10:16:01;;;;;;;4.82;3.95;;;;;;;;;;4858037;29;20048;-12
2021/06/04 10:18:29;;;;;;;6.53;4.85;;;;;;;;;;4863351;29;20064;-12
2021/06/04 10:21:08;;;;;;;9.10;6.80;;;;;;;;;;4863198;29;20404;-12
2021/06/04 10:23:37;;;;;;;5.88;4.70;;;;;;;;;;4863359;29;20030;-13
2021/06/04 10:26:16;;;;;;;5.95;3.53;;;;;;;;;;4862938;29;20504;-13
2021/06/04 10:28:41;;;;;;;4.82;4.22;;;;;;;;;;4863352;29;20041;-12
2021/06/04 10:31:21;;;;;;;9.38;5.80;;;;;;;;;;4863020;29;20030;-12
2021/06/04 10:34:05;;;;;;;8.57;6.45;;;;;;;;;;4862898;29;20033;-13
2021/06/04 10:36:40;;;;;;;5.28;4.65;;;;;;;;;;4862896;29;20044;-12
2021/06/04 10:39:08;;;;;;;9.35;5.28;;;;;;;;;;4863091;29;20438;-12
2021/06/04 10:41:37;;;;;;;7.40;4.53;;;;;;;;;;4862988;29;20025;-12
2021/06/04 10:44:05;;;;;;;7.28;4.90;;;;;;;;;;4862778;29;20098;-12
2021/06/04 10:46:43;;;;;;;8.32;4.40;;;;;;;;;;4862966;29;20108;-12
2021/06/04 10:49:17;;;;;;;6.28;4.97;;;;;;;;;;4862683;29;20033;-12
2021/06/04 10:51:56;;;;;;;7.82;5.97;;;;;;;;;;4862678;29;20158;-12
2021/06/04 10:54:41;;;;;;;6.25;5.00;;;;;;;;;;4862567;29;20108;-12
2021/06/04 10:57:11;;;;;;;5.90;4.50;;;;;;;;;;4862644;29;20032;-12
2021/06/04 10:59:55;;;;;;;10.15;6.00;;;;;;;;;;4862534;29;20045;-12
2021/06/04 11:02:39;;;;;;;11.75;7.60;;;;;;;;;;4862361;29;20477;-12
2021/06/04 11:05:12;;;;;;;9.90;4.30;;;;;;;;;;4862741;29;20033;-12
2021/06/04 11:07:54;;;;;;;11.00;7.15;;;;;;;;;;4861094;29;20485;-12
2021/06/04 11:10:40;;;;;;;9.20;6.53;;;;;;;;;;4862591;29;20034;-12
2021/06/04 11:13:14;;;;;;;8.70;5.93;;;;;;;;;;4862285;29;20044;-12
2021/06/04 11:15:46;;;;;;;7.57;5.70;;;;;;;;;;4862185;29;20065;-12
2021/06/04 11:18:18;;;;;;;14.18;8.05;;;;;;;;;;4862460;29;20060;-12
2021/06/04 11:20:48;;;;;;;8.60;4.88;;;;;;;;;;4862161;29;20037;-12
2021/06/04 11:23:37;;;;;;;5.85;5.25;;;;;;;;;;4861190;29;20098;-12
2021/06/04 11:26:06;;;;;;;7.20;4.50;;;;;;;;;;4840500;29;20077;-18
2021/06/04 11:28:31;;;;;;;7.22;5.28;;;;;;;;;;4843859;29;20381;-12
2021/06/04 11:30:58;;;;;;;3.50;3.17;;;;;;;;;;4843455;29;20054;-13
2021/06/04 11:33:25;;;;;;;8.35;6.20;;;;;;;;;;4843781;29;20022;-13
2021/06/04 11:35:57;;;;;;;7.00;5.30;;;;;;;;;;4843697;29;20029;-13
2021/06/04 11:38:23;;;;;;;5.65;3.67;;;;;;;;;;4843321;29;20053;-12
2021/06/04 11:40:51;;;;;;;7.45;5.63;;;;;;;;;;4843624;29;20084;-12
2021/06/04 11:43:26;;;;;;;6.78;5.28;;;;;;;;;;4843498;29;20029;-13
2021/06/04 11:46:12;;;;;;;9.70;5.68;;;;;;;;;;4843520;29;20034;-12
2021/06/04 11:48:39;;;;;;;9.80;7.53;;;;;;;;;;4841582;29;20066;-12
2021/06/04 11:51:19;;;;;;;13.48;8.48;;;;;;;;;;4843277;29;20026;-13
2021/06/04 11:53:49;;;;;;;10.13;6.65;;;;;;;;;;4843062;29;20044;-12
2021/06/04 11:56:53;;;;;;;7.78;5.65;;;;;;;;;;4843060;29;20074;-12
2021/06/04 11:59:37;;;;;;;9.80;7.45;;;;;;;;;;4822350;29;20050;-12
2021/06/04 12:02:04;;;;;;;8.05;5.57;;;;;;;;;;4822449;29;20121;-13
2021/06/04 12:04:29;;;;;;;9.02;5.53;;;;;;;;;;4826589;29;20064;-12
2021/06/04 12:06:58;;;;;;;8.18;5.75;;;;;;;;;;4842930;29;20029;-12
2021/06/04 12:09:33;;;;;;;8.68;5.70;;;;;;;;;;4842934;29;20101;-13
2021/06/04 12:12:17;;;;;;;7.18;5.45;;;;;;;;;;4842831;29;20046;-12
2021/06/04 12:15:02;;;;;;;11.88;7.60;;;;;;;;;;4841380;29;20048;-12
2021/06/04 12:17:27;;;;;;;12.30;7.30;;;;;;;;;;4842625;29;20479;-12
2021/06/04 12:20:11;;;;;;;12.18;6.05;;;;;;;;;;4842845;29;20041;-12
2021/06/04 12:22:39;;;;;;;12.27;7.18;;;;;;;;;;4842569;29;20062;-13
2021/06/04 12:25:05;;;;;;;8.15;5.85;;;;;;;;;;4852287;29;20110;-13
2021/06/04 12:27:30;;;;;;;8.13;5.65;;;;;;;;;;4861155;29;20500;-12
2021/06/04 12:29:56;;;;;;;12.13;6.88;;;;;;;;;;4860992;29;20033;-13
2021/06/04 12:32:41;;;;;;;9.75;7.95;;;;;;;;;;4860881;29;20461;-12
2021/06/04 12:35:07;;;;;;;9.57;6.80;;;;;;;;;;4860811;29;20454;-13
2021/06/04 12:37:34;;;;;;;9.68;5.38;;;;;;;;;;4860971;29;20022;-13
2021/06/04 12:40:18;;;;;;;11.95;6.35;;;;;;;;;;4860783;29;20493;-12
2021/06/04 12:43:03;;;;;;;9.20;6.50;;;;;;;;;;4860545;29;20037;-12
2021/06/04 12:45:37;;;;;;;8.77;3.88;;;;;;;;;;4860689;29;20052;-13
2021/06/04 12:48:02;;;;;;;;;;;;;;;;;;4859791;29;20021;-12
2021/06/04 12:50:27;;;;;;;7.72;5.82;;;;;;;;;;4860779;29;19952;-12
2021/06/04 12:53:08;;;;;;;14.95;5.13;;;;;;;;;;4860888;29;20041;-12
2021/06/04 12:55:34;;;;;;;10.27;6.85;;;;;;;;;;4860508;29;20037;-12
2021/06/04 12:58:18;;;;;;;6.38;5.10;;;;;;;;;;4860792;29;20532;-12
2021/06/04 13:00:44;;;;;;;11.57;7.05;;;;;;;;;;4860401;29;20073;-12
2021/06/04 13:03:27;;;;;;;7.53;5.88;;;;;;;;;;4860391;29;20032;-12
2021/06/04 13:05:53;;;;;;;10.95;6.85;;;;;;;;;;4860475;29;20042;-12
2021/06/04 13:08:22;;;;;;;13.93;6.18;;;;;;;;;;4859220;29;20529;-17
2021/06/04 13:10:49;;;;;;;10.00;6.97;;;;;;;;;;4860527;29;20041;-12
2021/06/04 13:13:17;;;;;;;12.45;8.40;;;;;;;;;;4858956;29;20384;-13
2021/06/04 13:15:43;;;;;;;7.90;5.85;;;;;;;;;;4860485;29;20385;-12
2021/06/04 13:18:14;;;;;;;8.02;6.60;;;;;;;;;;4860317;29;20047;-12
2021/06/04 13:20:41;;;;;;;8.07;5.75;;;;;;;;;;4860088;29;20045;-12
2021/06/04 13:23:09;;;;;;;9.73;7.47;;;;;;;;;;4860221;29;20376;-12
2021/06/04 13:25:35;;;;;;;13.25;8.30;;;;;;;;;;4859965;29;20492;-12
2021/06/04 13:28:16;;;;;;;16.52;8.18;;;;;;;;;;4860166;29;20025;-12
2021/06/04 13:30:44;;;;;;;5.32;3.08;;;;;;;;;;4860076;29;20041;-12
2021/06/04 13:33:14;;;;;;;9.00;6.55;;;;;;;;;;4858763;29;20492;-12
2021/06/04 13:35:41;;;;;;;10.00;6.53;;;;;;;;;;4859870;29;20053;-13
2021/06/04 13:38:10;;;;;;;9.70;6.97;;;;;;;;;;4860051;29;20056;-13
2021/06/04 13:40:38;;;;;;;14.88;7.40;;;;;;;;;;4858662;29;20149;-13
2021/06/04 13:43:05;;;;;;;8.90;7.45;;;;;;;;;;4858693;29;20116;-13
2021/06/04 13:45:38;;;;;;;10.07;7.22;;;;;;;;;;4861294;29;20038;-13
2021/06/04 13:48:07;;;;;;;11.63;7.32;;;;;;;;;;4864050;29;20112;-13
2021/06/04 13:50:47;;;;;;;14.07;8.23;;;;;;;;;;4863617;29;20589;-13
2021/06/04 13:53:12;;;;;;;12.27;7.45;;;;;;;;;;4863616;29;20030;-13
2021/06/04 13:55:38;;;;;;;9.27;7.15;;;;;;;;;;4863629;29;20029;-13
2021/06/04 13:58:17;;;;;;;11.10;8.32;;;;;;;;;;4863885;29;20089;-13
2021/06/04 14:01:02;;;;;;;11.70;9.10;;;;;;;;;;4863431;29;20124;-13
2021/06/04 14:03:29;;;;;;;8.55;5.68;;;;;;;;;;4863254;29;20065;-13
2021/06/04 14:05:59;;;;;;;16.27;10.52;;;;;;;;;;4863739;29;20036;-13
2021/06/04 14:08:25;;;;;;;13.82;7.78;;;;;;;;;;4863340;29;20061;-13
2021/06/04 14:10:55;;;;;;;12.30;7.78;;;;;;;;;;4863571;29;20651;-13
2021/06/04 14:13:20;;;;;;;14.27;8.30;;;;;;;;;;4863431;29;20069;-13
2021/06/04 14:15:48;;;;;;;10.45;8.85;;;;;;;;;;4863497;29;20052;-13
2021/06/04 14:18:33;;;;;;;9.07;7.35;;;;;;;;;;4863554;29;20140;-13
2021/06/04 14:21:19;;;;;;;9.15;7.55;;;;;;;;;;4861990;29;20500;-14
2021/06/04 14:23:54;;;;;;;16.63;8.43;;;;;;;;;;4863227;29;20129;-14
2021/06/04 14:26:20;;;;;;;12.80;9.07;;;;;;;;;;4861959;29;20527;-14
2021/06/04 14:28:57;;;;;;;11.85;6.32;;;;;;;;;;4862205;29;20030;-14
2021/06/04 14:31:24;;;;;;;10.38;6.43;;;;;;;;;;4861251;29;20090;-13
2021/06/04 14:33:52;;;;;;;12.30;6.82;;;;;;;;;;4861542;29;20124;-13
2021/06/04 14:36:23;;;;;;;6.55;5.15;;;;;;;;;;4862975;29;20074;-14
2021/06/04 14:38:50;;;;;;;10.95;6.68;;;;;;;;;;4862800;29;20148;-13
2021/06/04 14:41:17;;;;;;;10.75;6.43;;;;;;;;;;4862837;29;20029;-13
2021/06/04 14:43:47;;;;;;;11.23;5.90;;;;;;;;;;4862919;29;20160;-13
2021/06/04 14:46:16;;;;;;;10.23;7.28;;;;;;;;;;4862799;29;20072;-13
2021/06/04 14:48:41;;;;;;;10.88;6.70;;;;;;;;;;4862989;29;20449;-13
2021/06/04 14:51:07;;;;;;;7.20;6.05;;;;;;;;;;4862709;29;20053;-13
2021/06/04 14:53:34;;;;;;;8.07;6.80;;;;;;;;;;4861242;29;20041;-13
2021/06/04 14:56:00;;;;;;;12.43;6.60;;;;;;;;;;4862678;29;20427;-13